sensor_id;sensor_type;location;lat;lon;timestamp;temperature;humidity
6948;DHT22;3513;47.664;9.162;2022-09-09T00:02:31;14.50;99.90
6948;DHT22;3513;47.664;9.162;2022-09-09T00:04:39;14.50;99.90
6948;DHT22;3513;47.664;9.162;2022-09-09T00:07:41;14.50;99.90
6948;DHT22;3513;47.664;9.162;2022-09-09T00:10:28;14.50;99.90
6948;DHT22;3513;47.664;9.162;2022-09-09T00:13:19;14.60;99.90
6948;DHT22;3513;47.664;9.162;2022-09-09T00:15:54;14.60;99.90
6948;DHT22;3513;47.664;9.162;2022-09-09T00:20:58;14.50;99.90
6948;DHT22;3513;47.664;9.162;2022-09-09T00:23:24;14.40;99.90
6948;DHT22;3513;47.664;9.162;2022-09-09T00:26:04;14.30;99.90
6948;DHT22;3513;47.664;9.162;2022-09-09T00:28:41;14.20;99.90
6948;DHT22;3513;47.664;9.162;2022-09-09T00:31:20;14.20;99.90
6948;DHT22;3513;47.664;9.162;2022-09-09T00:33:49;14.20;99.90
6948;DHT22;3513;47.664;9.162;2022-09-09T00:36:18;14.10;99.90
6948;DHT22;3513;47.664;9.162;2022-09-09T00:38:49;14.10;99.90
6948;DHT22;3513;47.664;9.162;2022-09-09T00:46:51;14.20;99.90
6948;DHT22;3513;47.664;9.162;2022-09-09T00:52:08;14.30;99.90
6948;DHT22;3513;47.664;9.162;2022-09-09T00:57:35;14.20;99.90
6948;DHT22;3513;47.664;9.162;2022-09-09T01:03:07;14.20;99.90
6948;DHT22;3513;47.664;9.162;2022-09-09T01:08:34;14.30;99.90
6948;DHT22;3513;47.664;9.162;2022-09-09T01:11:02;14.20;99.90
6948;DHT22;3513;47.664;9.162;2022-09-09T01:13:32;14.20;99.90
6948;DHT22;3513;47.664;9.162;2022-09-09T01:16:00;14.20;99.90
6948;DHT22;3513;47.664;9.162;2022-09-09T01:18:49;14.20;99.90
6948;DHT22;3513;47.664;9.162;2022-09-09T01:21:55;14.20;99.90
6948;DHT22;3513;47.664;9.162;2022-09-09T01:27:03;14.10;99.90
6948;DHT22;3513;47.664;9.162;2022-09-09T01:29:31;14.10;99.90
6948;DHT22;3513;47.664;9.162;2022-09-09T01:32:02;14.10;99.90
6948;DHT22;3513;47.664;9.162;2022-09-09T01:34:34;14.00;99.90
6948;DHT22;3513;47.664;9.162;2022-09-09T01:37:12;14.00;99.90
6948;DHT22;3513;47.664;9.162;2022-09-09T01:39:39;14.00;99.90
6948;DHT22;3513;47.664;9.162;2022-09-09T01:42:09;14.00;99.90
6948;DHT22;3513;47.664;9.162;2022-09-09T01:44:37;14.10;99.90
6948;DHT22;3513;47.664;9.162;2022-09-09T01:47:03;14.10;99.90
6948;DHT22;3513;47.664;9.162;2022-09-09T01:49:29;14.10;99.90
6948;DHT22;3513;47.664;9.162;2022-09-09T01:51:55;14.10;99.90
6948;DHT22;3513;47.664;9.162;2022-09-09T01:54:24;14.00;99.90
6948;DHT22;3513;47.664;9.162;2022-09-09T01:57:07;14.00;99.90
6948;DHT22;3513;47.664;9.162;2022-09-09T01:59:58;14.00;99.90
6948;DHT22;3513;47.664;9.162;2022-09-09T02:07:46;13.90;99.90
6948;DHT22;3513;47.664;9.162;2022-09-09T02:12:53;14.00;99.90
6948;DHT22;3513;47.664;9.162;2022-09-09T02:15:28;13.90;99.90
6948;DHT22;3513;47.664;9.162;2022-09-09T02:17:57;13.90;99.90
6948;DHT22;3513;47.664;9.162;2022-09-09T02:20:24;13.90;99.90
6948;DHT22;3513;47.664;9.162;2022-09-09T02:22:53;13.90;99.90
6948;DHT22;3513;47.664;9.162;2022-09-09T02:25:22;13.90;99.90
6948;DHT22;3513;47.664;9.162;2022-09-09T02:27:50;13.90;99.90
6948;DHT22;3513;47.664;9.162;2022-09-09T02:30:17;14.00;99.90
6948;DHT22;3513;47.664;9.162;2022-09-09T02:32:44;14.00;99.90
6948;DHT22;3513;47.664;9.162;2022-09-09T02:35:17;14.00;99.90
6948;DHT22;3513;47.664;9.162;2022-09-09T02:37:45;14.00;99.90
6948;DHT22;3513;47.664;9.162;2022-09-09T02:40:14;14.00;99.90
6948;DHT22;3513;47.664;9.162;2022-09-09T02:42:42;14.10;99.90
6948;DHT22;3513;47.664;9.162;2022-09-09T02:45:10;14.10;99.90
6948;DHT22;3513;47.664;9.162;2022-09-09T02:50:35;14.20;99.90
6948;DHT22;3513;47.664;9.162;2022-09-09T02:55:56;14.30;99.90
6948;DHT22;3513;47.664;9.162;2022-09-09T02:58:23;14.30;99.90
6948;DHT22;3513;47.664;9.162;2022-09-09T03:00:50;14.40;99.90
6948;DHT22;3513;47.664;9.162;2022-09-09T03:03:18;14.40;99.90
6948;DHT22;3513;47.664;9.162;2022-09-09T03:05:44;14.40;99.90
6948;DHT22;3513;47.664;9.162;2022-09-09T03:08:10;14.40;99.90
6948;DHT22;3513;47.664;9.162;2022-09-09T03:10:37;14.40;99.90
6948;DHT22;3513;47.664;9.162;2022-09-09T03:13:03;14.50;99.90
6948;DHT22;3513;47.664;9.162;2022-09-09T03:15:32;14.50;99.90
6948;DHT22;3513;47.664;9.162;2022-09-09T03:17:59;14.70;99.90
6948;DHT22;3513;47.664;9.162;2022-09-09T03:20:26;14.70;99.90
6948;DHT22;3513;47.664;9.162;2022-09-09T03:22:52;14.70;99.90
6948;DHT22;3513;47.664;9.162;2022-09-09T03:25:18;14.80;99.90
6948;DHT22;3513;47.664;9.162;2022-09-09T03:27:44;14.70;99.90
6948;DHT22;3513;47.664;9.162;2022-09-09T03:30:10;14.70;99.90
6948;DHT22;3513;47.664;9.162;2022-09-09T03:32:36;14.60;99.90
6948;DHT22;3513;47.664;9.162;2022-09-09T03:35:02;14.60;99.90
6948;DHT22;3513;47.664;9.162;2022-09-09T03:37:28;14.70;99.90
6948;DHT22;3513;47.664;9.162;2022-09-09T03:39:54;14.70;99.90
6948;DHT22;3513;47.664;9.162;2022-09-09T03:42:20;14.80;99.90
6948;DHT22;3513;47.664;9.162;2022-09-09T03:44:47;14.90;99.90
6948;DHT22;3513;47.664;9.162;2022-09-09T03:47:19;14.90;99.90
6948;DHT22;3513;47.664;9.162;2022-09-09T03:49:45;14.90;99.90
6948;DHT22;3513;47.664;9.162;2022-09-09T03:52:12;15.10;99.90
6948;DHT22;3513;47.664;9.162;2022-09-09T03:54:38;15.30;99.90
6948;DHT22;3513;47.664;9.162;2022-09-09T03:57:04;15.30;99.90
6948;DHT22;3513;47.664;9.162;2022-09-09T03:59:30;15.40;99.90
6948;DHT22;3513;47.664;9.162;2022-09-09T04:01:56;15.50;99.90
6948;DHT22;3513;47.664;9.162;2022-09-09T04:04:24;15.50;99.90
6948;DHT22;3513;47.664;9.162;2022-09-09T04:06:51;15.60;99.90
6948;DHT22;3513;47.664;9.162;2022-09-09T04:09:17;15.60;99.90
6948;DHT22;3513;47.664;9.162;2022-09-09T04:11:43;15.60;99.90
6948;DHT22;3513;47.664;9.162;2022-09-09T04:14:08;15.60;99.90
6948;DHT22;3513;47.664;9.162;2022-09-09T04:16:34;15.70;99.90
6948;DHT22;3513;47.664;9.162;2022-09-09T04:19:03;15.70;99.90
6948;DHT22;3513;47.664;9.162;2022-09-09T04:21:33;15.90;99.90
6948;DHT22;3513;47.664;9.162;2022-09-09T04:23:58;15.80;99.90
6948;DHT22;3513;47.664;9.162;2022-09-09T04:26:25;15.90;99.90
6948;DHT22;3513;47.664;9.162;2022-09-09T04:28:50;15.90;99.90
6948;DHT22;3513;47.664;9.162;2022-09-09T04:31:20;16.00;99.90
6948;DHT22;3513;47.664;9.162;2022-09-09T04:33:46;16.00;99.90
6948;DHT22;3513;47.664;9.162;2022-09-09T04:36:13;15.90;99.90
6948;DHT22;3513;47.664;9.162;2022-09-09T04:38:39;15.80;99.90
6948;DHT22;3513;47.664;9.162;2022-09-09T04:41:05;15.70;99.90
6948;DHT22;3513;47.664;9.162;2022-09-09T04:43:31;15.70;99.90
6948;DHT22;3513;47.664;9.162;2022-09-09T04:45:57;15.70;99.90
6948;DHT22;3513;47.664;9.162;2022-09-09T04:48:24;15.70;99.90
6948;DHT22;3513;47.664;9.162;2022-09-09T04:50:57;15.70;99.90
6948;DHT22;3513;47.664;9.162;2022-09-09T04:53:23;15.80;99.90
6948;DHT22;3513;47.664;9.162;2022-09-09T04:55:51;15.90;99.90
6948;DHT22;3513;47.664;9.162;2022-09-09T04:58:16;15.90;99.90
6948;DHT22;3513;47.664;9.162;2022-09-09T05:00:42;15.80;99.90
6948;DHT22;3513;47.664;9.162;2022-09-09T05:03:08;15.70;99.90
6948;DHT22;3513;47.664;9.162;2022-09-09T05:05:35;15.60;99.90
6948;DHT22;3513;47.664;9.162;2022-09-09T05:08:06;15.60;99.90
6948;DHT22;3513;47.664;9.162;2022-09-09T05:10:33;15.50;99.90
6948;DHT22;3513;47.664;9.162;2022-09-09T05:12:59;15.50;99.90
6948;DHT22;3513;47.664;9.162;2022-09-09T05:15:24;15.40;99.90
6948;DHT22;3513;47.664;9.162;2022-09-09T05:17:50;15.30;99.90
6948;DHT22;3513;47.664;9.162;2022-09-09T05:20:17;15.30;99.90
6948;DHT22;3513;47.664;9.162;2022-09-09T05:22:44;15.20;99.90
6948;DHT22;3513;47.664;9.162;2022-09-09T05:25:09;15.20;99.90
6948;DHT22;3513;47.664;9.162;2022-09-09T05:27:35;15.10;99.90
6948;DHT22;3513;47.664;9.162;2022-09-09T05:30:01;15.00;99.90
6948;DHT22;3513;47.664;9.162;2022-09-09T05:32:27;15.00;99.90
6948;DHT22;3513;47.664;9.162;2022-09-09T05:34:53;15.00;99.90
6948;DHT22;3513;47.664;9.162;2022-09-09T05:37:19;15.00;99.90
6948;DHT22;3513;47.664;9.162;2022-09-09T05:39:44;15.00;99.90
6948;DHT22;3513;47.664;9.162;2022-09-09T05:42:10;15.10;99.90
6948;DHT22;3513;47.664;9.162;2022-09-09T05:44:36;15.10;99.90
6948;DHT22;3513;47.664;9.162;2022-09-09T05:47:03;15.20;99.90
6948;DHT22;3513;47.664;9.162;2022-09-09T05:49:28;15.30;99.90
6948;DHT22;3513;47.664;9.162;2022-09-09T05:51:54;15.40;99.90
6948;DHT22;3513;47.664;9.162;2022-09-09T05:54:20;15.50;99.90
6948;DHT22;3513;47.664;9.162;2022-09-09T05:56:45;15.30;99.90
6948;DHT22;3513;47.664;9.162;2022-09-09T05:59:12;15.30;99.90
6948;DHT22;3513;47.664;9.162;2022-09-09T06:01:38;15.30;99.90
6948;DHT22;3513;47.664;9.162;2022-09-09T06:04:07;15.20;99.90
6948;DHT22;3513;47.664;9.162;2022-09-09T06:06:36;15.20;99.90
6948;DHT22;3513;47.664;9.162;2022-09-09T06:09:03;15.20;99.90
6948;DHT22;3513;47.664;9.162;2022-09-09T06:11:32;15.20;99.90
6948;DHT22;3513;47.664;9.162;2022-09-09T06:14:00;15.20;99.90
6948;DHT22;3513;47.664;9.162;2022-09-09T06:16:27;15.20;99.90
6948;DHT22;3513;47.664;9.162;2022-09-09T06:18:55;15.30;99.90
6948;DHT22;3513;47.664;9.162;2022-09-09T06:21:24;15.30;99.90
6948;DHT22;3513;47.664;9.162;2022-09-09T06:23:50;15.40;99.90
6948;DHT22;3513;47.664;9.162;2022-09-09T06:28:46;15.40;99.90
6948;DHT22;3513;47.664;9.162;2022-09-09T06:31:14;15.50;99.90
6948;DHT22;3513;47.664;9.162;2022-09-09T06:33:41;15.60;99.90
6948;DHT22;3513;47.664;9.162;2022-09-09T06:36:11;15.60;99.90
6948;DHT22;3513;47.664;9.162;2022-09-09T06:38:37;15.60;99.90
6948;DHT22;3513;47.664;9.162;2022-09-09T06:41:03;15.60;99.90
6948;DHT22;3513;47.664;9.162;2022-09-09T06:43:31;15.70;99.90
6948;DHT22;3513;47.664;9.162;2022-09-09T06:48:23;15.90;99.90
6948;DHT22;3513;47.664;9.162;2022-09-09T06:50:59;16.00;99.90
6948;DHT22;3513;47.664;9.162;2022-09-09T06:53:25;16.10;99.90
6948;DHT22;3513;47.664;9.162;2022-09-09T06:55:52;16.10;99.90
6948;DHT22;3513;47.664;9.162;2022-09-09T06:58:18;16.20;99.90
6948;DHT22;3513;47.664;9.162;2022-09-09T07:00:44;16.40;99.90
6948;DHT22;3513;47.664;9.162;2022-09-09T07:03:10;16.40;99.90
6948;DHT22;3513;47.664;9.162;2022-09-09T07:05:36;16.40;99.90
6948;DHT22;3513;47.664;9.162;2022-09-09T07:08:02;16.40;99.90
6948;DHT22;3513;47.664;9.162;2022-09-09T07:10:28;16.40;99.90
6948;DHT22;3513;47.664;9.162;2022-09-09T07:12:54;16.50;99.90
6948;DHT22;3513;47.664;9.162;2022-09-09T07:15:20;16.50;99.90
6948;DHT22;3513;47.664;9.162;2022-09-09T07:17:47;16.60;99.90
6948;DHT22;3513;47.664;9.162;2022-09-09T07:20:13;16.70;99.90
6948;DHT22;3513;47.664;9.162;2022-09-09T07:22:40;16.70;99.90
6948;DHT22;3513;47.664;9.162;2022-09-09T07:25:06;16.70;99.90
6948;DHT22;3513;47.664;9.162;2022-09-09T07:27:32;16.70;99.90
6948;DHT22;3513;47.664;9.162;2022-09-09T07:29:58;16.70;99.90
6948;DHT22;3513;47.664;9.162;2022-09-09T07:32:23;16.60;99.90
6948;DHT22;3513;47.664;9.162;2022-09-09T07:34:51;16.60;99.90
6948;DHT22;3513;47.664;9.162;2022-09-09T07:37:16;16.60;99.90
6948;DHT22;3513;47.664;9.162;2022-09-09T07:39:43;16.50;99.90
6948;DHT22;3513;47.664;9.162;2022-09-09T07:42:10;16.60;99.90
6948;DHT22;3513;47.664;9.162;2022-09-09T07:44:37;16.60;99.90
6948;DHT22;3513;47.664;9.162;2022-09-09T07:47:05;16.60;99.90
6948;DHT22;3513;47.664;9.162;2022-09-09T07:49:30;16.70;99.90
6948;DHT22;3513;47.664;9.162;2022-09-09T07:51:58;16.70;99.90
6948;DHT22;3513;47.664;9.162;2022-09-09T07:54:24;16.80;99.90
6948;DHT22;3513;47.664;9.162;2022-09-09T07:56:50;16.90;99.90
6948;DHT22;3513;47.664;9.162;2022-09-09T07:59:16;16.90;99.90
6948;DHT22;3513;47.664;9.162;2022-09-09T08:02:00;17.00;99.90
6948;DHT22;3513;47.664;9.162;2022-09-09T08:04:25;17.20;99.90
6948;DHT22;3513;47.664;9.162;2022-09-09T08:06:56;17.30;99.90
6948;DHT22;3513;47.664;9.162;2022-09-09T08:09:23;17.40;99.90
6948;DHT22;3513;47.664;9.162;2022-09-09T08:11:54;17.50;99.90
6948;DHT22;3513;47.664;9.162;2022-09-09T08:14:22;17.70;99.90
6948;DHT22;3513;47.664;9.162;2022-09-09T08:16:49;17.80;99.90
6948;DHT22;3513;47.664;9.162;2022-09-09T08:19:15;17.90;99.90
6948;DHT22;3513;47.664;9.162;2022-09-09T08:21:42;18.00;99.90
6948;DHT22;3513;47.664;9.162;2022-09-09T08:24:10;18.00;99.90
6948;DHT22;3513;47.664;9.162;2022-09-09T08:26:41;18.20;99.90
6948;DHT22;3513;47.664;9.162;2022-09-09T08:29:08;18.40;99.90
6948;DHT22;3513;47.664;9.162;2022-09-09T08:34:06;18.70;99.90
6948;DHT22;3513;47.664;9.162;2022-09-09T08:36:41;18.90;99.90
6948;DHT22;3513;47.664;9.162;2022-09-09T08:39:08;19.20;99.90
6948;DHT22;3513;47.664;9.162;2022-09-09T08:50:16;20.00;99.90
6948;DHT22;3513;47.664;9.162;2022-09-09T08:55:52;20.00;99.90
6948;DHT22;3513;47.664;9.162;2022-09-09T08:58:22;20.00;99.50
6948;DHT22;3513;47.664;9.162;2022-09-09T09:01:14;20.00;99.20
6948;DHT22;3513;47.664;9.162;2022-09-09T09:06:50;20.10;98.90
6948;DHT22;3513;47.664;9.162;2022-09-09T09:09:29;20.10;98.70
6948;DHT22;3513;47.664;9.162;2022-09-09T09:11:58;20.10;98.50
6948;DHT22;3513;47.664;9.162;2022-09-09T09:14:31;20.00;99.00
6948;DHT22;3513;47.664;9.162;2022-09-09T09:17:20;20.00;98.40
6948;DHT22;3513;47.664;9.162;2022-09-09T09:19:47;19.90;97.90
6948;DHT22;3513;47.664;9.162;2022-09-09T09:22:32;19.90;97.90
6948;DHT22;3513;47.664;9.162;2022-09-09T09:25:22;19.80;97.00
6948;DHT22;3513;47.664;9.162;2022-09-09T09:28:00;19.80;96.80
6948;DHT22;3513;47.664;9.162;2022-09-09T09:30:37;19.60;97.70
6948;DHT22;3513;47.664;9.162;2022-09-09T09:33:21;19.50;98.10
6948;DHT22;3513;47.664;9.162;2022-09-09T09:35:51;19.40;98.50
6948;DHT22;3513;47.664;9.162;2022-09-09T09:40:56;19.40;98.70
6948;DHT22;3513;47.664;9.162;2022-09-09T09:43:30;19.40;98.20
6948;DHT22;3513;47.664;9.162;2022-09-09T09:45:56;19.40;98.80
6948;DHT22;3513;47.664;9.162;2022-09-09T09:48:27;19.40;98.20
6948;DHT22;3513;47.664;9.162;2022-09-09T09:50:55;19.40;98.80
6948;DHT22;3513;47.664;9.162;2022-09-09T09:53:30;19.50;97.90
6948;DHT22;3513;47.664;9.162;2022-09-09T09:56:04;19.60;98.00
6948;DHT22;3513;47.664;9.162;2022-09-09T09:58:53;19.60;98.10
6948;DHT22;3513;47.664;9.162;2022-09-09T10:01:28;19.80;97.80
6948;DHT22;3513;47.664;9.162;2022-09-09T10:04:02;19.90;97.80
6948;DHT22;3513;47.664;9.162;2022-09-09T10:06:34;20.00;96.90
6948;DHT22;3513;47.664;9.162;2022-09-09T10:09:04;20.10;95.60
6948;DHT22;3513;47.664;9.162;2022-09-09T10:14:29;19.90;93.80
6948;DHT22;3513;47.664;9.162;2022-09-09T10:17:32;19.80;94.40
6948;DHT22;3513;47.664;9.162;2022-09-09T10:23:46;19.80;95.60
6948;DHT22;3513;47.664;9.162;2022-09-09T10:26:19;19.80;97.20
6948;DHT22;3513;47.664;9.162;2022-09-09T10:40:19;20.10;94.20
6948;DHT22;3513;47.664;9.162;2022-09-09T10:42:47;20.10;92.90
6948;DHT22;3513;47.664;9.162;2022-09-09T10:45:20;20.10;94.00
6948;DHT22;3513;47.664;9.162;2022-09-09T10:56:12;20.60;90.30
6948;DHT22;3513;47.664;9.162;2022-09-09T10:59:00;20.60;91.10
6948;DHT22;3513;47.664;9.162;2022-09-09T11:01:33;20.60;90.80
6948;DHT22;3513;47.664;9.162;2022-09-09T11:04:10;20.50;91.10
6948;DHT22;3513;47.664;9.162;2022-09-09T11:06:42;20.40;90.50
6948;DHT22;3513;47.664;9.162;2022-09-09T11:09:22;20.20;91.10
6948;DHT22;3513;47.664;9.162;2022-09-09T11:11:56;20.20;91.70
6948;DHT22;3513;47.664;9.162;2022-09-09T11:17:15;20.00;92.10
6948;DHT22;3513;47.664;9.162;2022-09-09T11:19:44;19.80;91.40
6948;DHT22;3513;47.664;9.162;2022-09-09T11:27:38;19.70;91.20
6948;DHT22;3513;47.664;9.162;2022-09-09T11:32:59;19.70;91.90
6948;DHT22;3513;47.664;9.162;2022-09-09T11:40:41;20.30;90.80
6948;DHT22;3513;47.664;9.162;2022-09-09T11:45:56;20.60;87.60
6948;DHT22;3513;47.664;9.162;2022-09-09T11:48:43;20.50;86.70
6948;DHT22;3513;47.664;9.162;2022-09-09T11:51:25;20.50;87.10
6948;DHT22;3513;47.664;9.162;2022-09-09T11:53:56;20.50;87.80
6948;DHT22;3513;47.664;9.162;2022-09-09T11:56:41;20.40;86.00
6948;DHT22;3513;47.664;9.162;2022-09-09T11:59:21;20.40;86.20
6948;DHT22;3513;47.664;9.162;2022-09-09T12:01:59;20.10;86.70
6948;DHT22;3513;47.664;9.162;2022-09-09T12:09:43;20.40;87.60
6948;DHT22;3513;47.664;9.162;2022-09-09T12:15:15;20.60;87.50
6948;DHT22;3513;47.664;9.162;2022-09-09T12:17:49;20.70;87.70
6948;DHT22;3513;47.664;9.162;2022-09-09T12:20:34;20.90;88.50
6948;DHT22;3513;47.664;9.162;2022-09-09T12:28:39;21.60;86.00
6948;DHT22;3513;47.664;9.162;2022-09-09T12:31:17;21.80;80.50
6948;DHT22;3513;47.664;9.162;2022-09-09T12:33:46;21.80;83.20
6948;DHT22;3513;47.664;9.162;2022-09-09T12:36:19;21.80;82.50
6948;DHT22;3513;47.664;9.162;2022-09-09T12:38:47;21.80;84.80
6948;DHT22;3513;47.664;9.162;2022-09-09T12:41:24;21.70;80.90
6948;DHT22;3513;47.664;9.162;2022-09-09T12:44:02;21.70;82.80
6948;DHT22;3513;47.664;9.162;2022-09-09T12:48:57;22.00;81.60
6948;DHT22;3513;47.664;9.162;2022-09-09T12:51:31;22.20;82.40
6948;DHT22;3513;47.664;9.162;2022-09-09T12:53:58;22.60;83.70
6948;DHT22;3513;47.664;9.162;2022-09-09T12:56:30;23.00;79.20
6948;DHT22;3513;47.664;9.162;2022-09-09T12:58:58;23.20;81.10
6948;DHT22;3513;47.664;9.162;2022-09-09T13:03:52;23.70;78.80
6948;DHT22;3513;47.664;9.162;2022-09-09T13:06:29;23.80;76.80
6948;DHT22;3513;47.664;9.162;2022-09-09T13:08:57;23.60;75.10
6948;DHT22;3513;47.664;9.162;2022-09-09T13:11:41;23.50;76.00
6948;DHT22;3513;47.664;9.162;2022-09-09T13:14:28;23.50;78.60
6948;DHT22;3513;47.664;9.162;2022-09-09T13:16:59;23.60;75.40
6948;DHT22;3513;47.664;9.162;2022-09-09T13:19:25;23.80;77.60
6948;DHT22;3513;47.664;9.162;2022-09-09T13:21:54;24.20;77.50
6948;DHT22;3513;47.664;9.162;2022-09-09T13:24:32;24.30;71.40
6948;DHT22;3513;47.664;9.162;2022-09-09T13:27:01;24.30;73.90
6948;DHT22;3513;47.664;9.162;2022-09-09T13:29:28;24.30;68.80
6948;DHT22;3513;47.664;9.162;2022-09-09T13:32:16;24.10;67.70
6948;DHT22;3513;47.664;9.162;2022-09-09T13:34:54;24.30;68.00
6948;DHT22;3513;47.664;9.162;2022-09-09T13:37:37;24.10;68.00
6948;DHT22;3513;47.664;9.162;2022-09-09T13:40:18;23.90;68.70
6948;DHT22;3513;47.664;9.162;2022-09-09T13:42:44;24.20;71.30
6948;DHT22;3513;47.664;9.162;2022-09-09T13:45:22;24.40;67.10
6948;DHT22;3513;47.664;9.162;2022-09-09T13:47:49;24.20;68.60
6948;DHT22;3513;47.664;9.162;2022-09-09T13:50:28;24.50;70.00
6948;DHT22;3513;47.664;9.162;2022-09-09T13:52:58;24.90;69.00
6948;DHT22;3513;47.664;9.162;2022-09-09T13:55:29;25.10;67.10
6948;DHT22;3513;47.664;9.162;2022-09-09T13:57:57;25.30;66.30
6948;DHT22;3513;47.664;9.162;2022-09-09T14:00:23;25.60;66.00
6948;DHT22;3513;47.664;9.162;2022-09-09T14:02:50;26.10;62.80
6948;DHT22;3513;47.664;9.162;2022-09-09T14:05:18;26.70;61.40
6948;DHT22;3513;47.664;9.162;2022-09-09T14:07:45;27.10;59.50
6948;DHT22;3513;47.664;9.162;2022-09-09T14:10:11;27.50;57.70
6948;DHT22;3513;47.664;9.162;2022-09-09T14:12:37;27.40;58.60
6948;DHT22;3513;47.664;9.162;2022-09-09T14:15:05;27.70;58.40
6948;DHT22;3513;47.664;9.162;2022-09-09T14:17:30;27.90;57.50
6948;DHT22;3513;47.664;9.162;2022-09-09T14:19:57;28.00;57.80
6948;DHT22;3513;47.664;9.162;2022-09-09T14:22:23;28.70;59.20
6948;DHT22;3513;47.664;9.162;2022-09-09T14:24:49;29.60;56.20
6948;DHT22;3513;47.664;9.162;2022-09-09T14:27:15;30.50;55.10
6948;DHT22;3513;47.664;9.162;2022-09-09T14:29:41;31.30;52.10
6948;DHT22;3513;47.664;9.162;2022-09-09T14:32:07;31.80;51.10
6948;DHT22;3513;47.664;9.162;2022-09-09T14:34:33;31.80;48.60
6948;DHT22;3513;47.664;9.162;2022-09-09T14:36:59;31.20;48.30
6948;DHT22;3513;47.664;9.162;2022-09-09T14:39:24;30.60;51.20
6948;DHT22;3513;47.664;9.162;2022-09-09T14:41:50;30.50;50.80
6948;DHT22;3513;47.664;9.162;2022-09-09T14:44:16;30.20;51.50
6948;DHT22;3513;47.664;9.162;2022-09-09T14:46:41;29.70;52.10
6948;DHT22;3513;47.664;9.162;2022-09-09T14:49:10;29.00;53.60
6948;DHT22;3513;47.664;9.162;2022-09-09T14:51:38;28.30;54.10
6948;DHT22;3513;47.664;9.162;2022-09-09T14:54:04;27.40;56.10
6948;DHT22;3513;47.664;9.162;2022-09-09T14:56:32;26.60;57.50
6948;DHT22;3513;47.664;9.162;2022-09-09T14:59:00;25.80;59.30
6948;DHT22;3513;47.664;9.162;2022-09-09T15:01:26;25.30;60.90
6948;DHT22;3513;47.664;9.162;2022-09-09T15:03:56;24.80;62.80
6948;DHT22;3513;47.664;9.162;2022-09-09T15:06:24;24.60;64.90
6948;DHT22;3513;47.664;9.162;2022-09-09T15:08:52;24.80;67.30
6948;DHT22;3513;47.664;9.162;2022-09-09T15:11:18;25.30;65.50
6948;DHT22;3513;47.664;9.162;2022-09-09T15:13:44;25.50;64.30
6948;DHT22;3513;47.664;9.162;2022-09-09T15:16:15;26.00;65.50
6948;DHT22;3513;47.664;9.162;2022-09-09T15:18:42;27.30;63.40
6948;DHT22;3513;47.664;9.162;2022-09-09T15:21:10;28.60;58.90
6948;DHT22;3513;47.664;9.162;2022-09-09T15:23:36;28.60;59.10
6948;DHT22;3513;47.664;9.162;2022-09-09T15:26:03;28.60;53.90
6948;DHT22;3513;47.664;9.162;2022-09-09T15:28:31;28.50;57.90
6948;DHT22;3513;47.664;9.162;2022-09-09T15:30:58;28.70;52.70
6948;DHT22;3513;47.664;9.162;2022-09-09T15:33:29;28.80;47.30
6948;DHT22;3513;47.664;9.162;2022-09-09T15:35:55;28.40;47.30
6948;DHT22;3513;47.664;9.162;2022-09-09T15:38:21;27.90;50.20
6948;DHT22;3513;47.664;9.162;2022-09-09T15:40:56;27.60;49.60
6948;DHT22;3513;47.664;9.162;2022-09-09T15:43:22;26.80;50.90
6948;DHT22;3513;47.664;9.162;2022-09-09T15:45:52;26.80;52.60
6948;DHT22;3513;47.664;9.162;2022-09-09T15:48:25;27.00;51.90
6948;DHT22;3513;47.664;9.162;2022-09-09T15:51:02;27.10;51.40
6948;DHT22;3513;47.664;9.162;2022-09-09T15:53:29;27.10;49.40
6948;DHT22;3513;47.664;9.162;2022-09-09T15:55:55;27.10;49.80
6948;DHT22;3513;47.664;9.162;2022-09-09T15:58:21;27.10;50.20
6948;DHT22;3513;47.664;9.162;2022-09-09T16:00:46;27.10;47.50
6948;DHT22;3513;47.664;9.162;2022-09-09T16:03:13;26.70;47.50
6948;DHT22;3513;47.664;9.162;2022-09-09T16:05:38;26.70;48.20
6948;DHT22;3513;47.664;9.162;2022-09-09T16:08:04;26.50;49.70
6948;DHT22;3513;47.664;9.162;2022-09-09T16:10:29;26.60;50.20
6948;DHT22;3513;47.664;9.162;2022-09-09T16:12:56;27.10;48.90
6948;DHT22;3513;47.664;9.162;2022-09-09T16:15:21;27.30;47.00
6948;DHT22;3513;47.664;9.162;2022-09-09T16:17:48;27.50;47.20
6948;DHT22;3513;47.664;9.162;2022-09-09T16:20:14;27.50;47.70
6948;DHT22;3513;47.664;9.162;2022-09-09T16:22:40;27.50;46.70
6948;DHT22;3513;47.664;9.162;2022-09-09T16:25:06;27.50;46.80
6948;DHT22;3513;47.664;9.162;2022-09-09T16:27:32;27.90;46.10
6948;DHT22;3513;47.664;9.162;2022-09-09T16:30:00;28.20;45.40
6948;DHT22;3513;47.664;9.162;2022-09-09T16:32:26;28.10;45.20
6948;DHT22;3513;47.664;9.162;2022-09-09T16:34:52;27.90;45.40
6948;DHT22;3513;47.664;9.162;2022-09-09T16:37:17;28.30;45.60
6948;DHT22;3513;47.664;9.162;2022-09-09T16:39:43;28.40;44.90
6948;DHT22;3513;47.664;9.162;2022-09-09T16:42:08;28.60;45.00
6948;DHT22;3513;47.664;9.162;2022-09-09T16:44:35;28.30;44.30
6948;DHT22;3513;47.664;9.162;2022-09-09T16:47:00;27.70;45.40
6948;DHT22;3513;47.664;9.162;2022-09-09T16:49:26;27.40;46.30
6948;DHT22;3513;47.664;9.162;2022-09-09T16:51:53;27.20;45.70
6948;DHT22;3513;47.664;9.162;2022-09-09T16:54:19;26.70;46.80
6948;DHT22;3513;47.664;9.162;2022-09-09T16:56:46;26.50;47.90
6948;DHT22;3513;47.664;9.162;2022-09-09T16:59:17;26.30;47.90
6948;DHT22;3513;47.664;9.162;2022-09-09T17:01:44;26.20;48.40
6948;DHT22;3513;47.664;9.162;2022-09-09T17:04:13;25.90;49.30
6948;DHT22;3513;47.664;9.162;2022-09-09T17:06:41;25.10;51.10
6948;DHT22;3513;47.664;9.162;2022-09-09T17:09:10;24.50;52.10
6948;DHT22;3513;47.664;9.162;2022-09-09T17:11:37;23.80;53.40
6948;DHT22;3513;47.664;9.162;2022-09-09T17:14:04;23.20;55.20
6948;DHT22;3513;47.664;9.162;2022-09-09T17:16:32;22.90;56.90
6948;DHT22;3513;47.664;9.162;2022-09-09T17:18:59;22.50;58.20
6948;DHT22;3513;47.664;9.162;2022-09-09T17:21:27;22.10;59.50
6948;DHT22;3513;47.664;9.162;2022-09-09T17:23:54;21.90;61.00
6948;DHT22;3513;47.664;9.162;2022-09-09T17:26:22;21.60;62.60
6948;DHT22;3513;47.664;9.162;2022-09-09T17:28:48;21.30;64.70
6948;DHT22;3513;47.664;9.162;2022-09-09T17:31:16;21.00;66.30
6948;DHT22;3513;47.664;9.162;2022-09-09T17:33:45;20.80;67.60
6948;DHT22;3513;47.664;9.162;2022-09-09T17:36:19;20.70;68.00
6948;DHT22;3513;47.664;9.162;2022-09-09T17:38:45;20.70;68.40
6948;DHT22;3513;47.664;9.162;2022-09-09T17:41:12;20.60;69.00
6948;DHT22;3513;47.664;9.162;2022-09-09T17:43:38;20.30;69.60
6948;DHT22;3513;47.664;9.162;2022-09-09T17:46:16;20.20;70.20
6948;DHT22;3513;47.664;9.162;2022-09-09T17:48:43;20.10;70.80
6948;DHT22;3513;47.664;9.162;2022-09-09T17:51:13;19.90;72.00
6948;DHT22;3513;47.664;9.162;2022-09-09T17:53:40;19.70;71.60
6948;DHT22;3513;47.664;9.162;2022-09-09T17:56:08;19.70;72.30
6948;DHT22;3513;47.664;9.162;2022-09-09T17:58:35;19.80;72.70
6948;DHT22;3513;47.664;9.162;2022-09-09T18:03:30;20.00;75.30
6948;DHT22;3513;47.664;9.162;2022-09-09T18:06:04;20.00;80.00
6948;DHT22;3513;47.664;9.162;2022-09-09T18:08:31;19.20;91.90
6948;DHT22;3513;47.664;9.162;2022-09-09T18:10:58;18.20;95.90
6948;DHT22;3513;47.664;9.162;2022-09-09T18:13:24;17.40;97.40
6948;DHT22;3513;47.664;9.162;2022-09-09T18:15:50;17.00;99.90
6948;DHT22;3513;47.664;9.162;2022-09-09T18:18:15;16.70;99.90
6948;DHT22;3513;47.664;9.162;2022-09-09T18:20:41;16.30;99.90
6948;DHT22;3513;47.664;9.162;2022-09-09T18:23:09;16.20;99.90
6948;DHT22;3513;47.664;9.162;2022-09-09T18:25:41;16.10;99.90